sensor_id;sensor_type;location;lat;lon;timestamp;P1;durP1;ratioP1;P2;durP2;ratioP2
34373;SDS011;20637;55.770;37.592;2024-01-06T00:02:25;9.18;;;3.95;;
34373;SDS011;20637;55.770;37.592;2024-01-06T00:04:51;7.53;;;3.40;;
34373;SDS011;20637;55.770;37.592;2024-01-06T00:07:16;6.97;;;3.75;;
34373;SDS011;20637;55.770;37.592;2024-01-06T00:09:42;6.60;;;3.25;;
34373;SDS011;20637;55.770;37.592;2024-01-06T00:12:08;8.82;;;3.63;;
34373;SDS011;20637;55.770;37.592;2024-01-06T00:14:34;7.45;;;3.60;;
34373;SDS011;20637;55.770;37.592;2024-01-06T00:17:00;7.03;;;3.38;;
34373;SDS011;20637;55.770;37.592;2024-01-06T00:19:25;8.27;;;3.83;;
34373;SDS011;20637;55.770;37.592;2024-01-06T00:21:51;6.70;;;3.05;;
34373;SDS011;20637;55.770;37.592;2024-01-06T00:24:17;8.68;;;3.50;;
34373;SDS011;20637;55.770;37.592;2024-01-06T00:26:42;12.70;;;4.32;;
34373;SDS011;20637;55.770;37.592;2024-01-06T00:29:10;8.48;;;3.50;;
34373;SDS011;20637;55.770;37.592;2024-01-06T00:31:35;10.23;;;4.43;;
34373;SDS011;20637;55.770;37.592;2024-01-06T00:34:01;5.90;;;3.45;;
34373;SDS011;20637;55.770;37.592;2024-01-06T00:36:28;9.85;;;3.42;;
34373;SDS011;20637;55.770;37.592;2024-01-06T00:38:54;8.63;;;3.35;;
34373;SDS011;20637;55.770;37.592;2024-01-06T00:41:20;8.00;;;3.03;;
34373;SDS011;20637;55.770;37.592;2024-01-06T00:43:45;6.97;;;2.67;;
34373;SDS011;20637;55.770;37.592;2024-01-06T00:46:11;6.85;;;3.40;;
34373;SDS011;20637;55.770;37.592;2024-01-06T00:48:37;5.82;;;2.97;;
34373;SDS011;20637;55.770;37.592;2024-01-06T00:51:02;6.55;;;3.47;;
34373;SDS011;20637;55.770;37.592;2024-01-06T00:53:28;6.65;;;3.22;;
34373;SDS011;20637;55.770;37.592;2024-01-06T00:55:54;6.82;;;3.10;;
34373;SDS011;20637;55.770;37.592;2024-01-06T00:58:20;8.75;;;2.80;;
34373;SDS011;20637;55.770;37.592;2024-01-06T01:00:45;8.00;;;3.33;;
34373;SDS011;20637;55.770;37.592;2024-01-06T01:03:11;8.65;;;3.25;;
34373;SDS011;20637;55.770;37.592;2024-01-06T01:05:36;7.20;;;2.75;;
34373;SDS011;20637;55.770;37.592;2024-01-06T01:08:02;6.38;;;2.83;;
34373;SDS011;20637;55.770;37.592;2024-01-06T01:10:28;6.00;;;2.83;;
34373;SDS011;20637;55.770;37.592;2024-01-06T01:12:53;7.28;;;3.20;;
34373;SDS011;20637;55.770;37.592;2024-01-06T01:15:19;6.90;;;2.88;;
34373;SDS011;20637;55.770;37.592;2024-01-06T01:17:45;6.97;;;2.92;;
34373;SDS011;20637;55.770;37.592;2024-01-06T01:20:10;7.65;;;2.28;;
34373;SDS011;20637;55.770;37.592;2024-01-06T01:22:36;5.95;;;2.90;;
34373;SDS011;20637;55.770;37.592;2024-01-06T01:25:02;6.20;;;2.95;;
34373;SDS011;20637;55.770;37.592;2024-01-06T01:27:33;6.18;;;2.50;;
34373;SDS011;20637;55.770;37.592;2024-01-06T01:29:59;6.97;;;2.55;;
34373;SDS011;20637;55.770;37.592;2024-01-06T01:32:25;6.80;;;2.63;;
34373;SDS011;20637;55.770;37.592;2024-01-06T01:34:50;9.05;;;3.08;;
34373;SDS011;20637;55.770;37.592;2024-01-06T01:37:16;5.32;;;2.80;;
34373;SDS011;20637;55.770;37.592;2024-01-06T01:39:42;7.45;;;3.20;;
34373;SDS011;20637;55.770;37.592;2024-01-06T01:42:07;7.93;;;3.15;;
34373;SDS011;20637;55.770;37.592;2024-01-06T01:44:33;8.05;;;3.40;;
34373;SDS011;20637;55.770;37.592;2024-01-06T01:46:59;5.88;;;2.83;;
34373;SDS011;20637;55.770;37.592;2024-01-06T01:49:25;5.80;;;2.63;;
34373;SDS011;20637;55.770;37.592;2024-01-06T01:51:51;7.78;;;3.25;;
34373;SDS011;20637;55.770;37.592;2024-01-06T01:54:18;6.88;;;3.03;;
34373;SDS011;20637;55.770;37.592;2024-01-06T01:56:44;7.78;;;3.15;;
34373;SDS011;20637;55.770;37.592;2024-01-06T01:59:13;7.78;;;3.20;;
34373;SDS011;20637;55.770;37.592;2024-01-06T02:01:39;7.93;;;3.50;;
34373;SDS011;20637;55.770;37.592;2024-01-06T02:04:05;5.60;;;2.92;;
34373;SDS011;20637;55.770;37.592;2024-01-06T02:06:32;7.40;;;3.03;;
34373;SDS011;20637;55.770;37.592;2024-01-06T02:08:57;4.07;;;2.10;;
34373;SDS011;20637;55.770;37.592;2024-01-06T02:11:23;7.30;;;3.45;;
34373;SDS011;20637;55.770;37.592;2024-01-06T02:13:49;7.95;;;4.07;;
34373;SDS011;20637;55.770;37.592;2024-01-06T02:16:15;8.63;;;2.83;;
34373;SDS011;20637;55.770;37.592;2024-01-06T02:18:40;6.55;;;3.00;;
34373;SDS011;20637;55.770;37.592;2024-01-06T02:21:06;5.45;;;2.95;;
34373;SDS011;20637;55.770;37.592;2024-01-06T02:23:34;7.95;;;3.35;;
34373;SDS011;20637;55.770;37.592;2024-01-06T02:26:01;7.65;;;3.10;;
34373;SDS011;20637;55.770;37.592;2024-01-06T02:28:27;7.45;;;2.97;;
34373;SDS011;20637;55.770;37.592;2024-01-06T02:30:53;7.63;;;2.95;;
34373;SDS011;20637;55.770;37.592;2024-01-06T02:33:19;6.85;;;3.45;;
34373;SDS011;20637;55.770;37.592;2024-01-06T02:35:45;5.50;;;2.17;;
34373;SDS011;20637;55.770;37.592;2024-01-06T02:38:11;5.22;;;2.58;;
34373;SDS011;20637;55.770;37.592;2024-01-06T02:40:37;10.82;;;3.60;;
34373;SDS011;20637;55.770;37.592;2024-01-06T02:43:03;6.72;;;2.90;;
34373;SDS011;20637;55.770;37.592;2024-01-06T02:45:29;6.30;;;3.08;;
34373;SDS011;20637;55.770;37.592;2024-01-06T02:47:54;7.40;;;3.35;;
34373;SDS011;20637;55.770;37.592;2024-01-06T02:50:20;3.63;;;2.03;;
34373;SDS011;20637;55.770;37.592;2024-01-06T02:52:46;7.00;;;3.10;;
34373;SDS011;20637;55.770;37.592;2024-01-06T02:55:12;6.72;;;3.30;;
34373;SDS011;20637;55.770;37.592;2024-01-06T02:57:38;7.65;;;3.05;;
34373;SDS011;20637;55.770;37.592;2024-01-06T03:00:03;9.88;;;4.00;;
34373;SDS011;20637;55.770;37.592;2024-01-06T03:02:30;8.73;;;3.50;;
34373;SDS011;20637;55.770;37.592;2024-01-06T03:04:56;9.88;;;3.47;;
34373;SDS011;20637;55.770;37.592;2024-01-06T03:07:22;8.20;;;3.30;;
34373;SDS011;20637;55.770;37.592;2024-01-06T03:09:47;9.43;;;3.22;;
34373;SDS011;20637;55.770;37.592;2024-01-06T03:12:13;6.13;;;2.83;;
34373;SDS011;20637;55.770;37.592;2024-01-06T03:14:39;6.95;;;3.10;;
34373;SDS011;20637;55.770;37.592;2024-01-06T03:17:04;7.97;;;3.40;;
34373;SDS011;20637;55.770;37.592;2024-01-06T03:19:30;7.70;;;3.58;;
34373;SDS011;20637;55.770;37.592;2024-01-06T03:21:56;5.63;;;2.67;;
34373;SDS011;20637;55.770;37.592;2024-01-06T03:24:22;5.53;;;2.78;;
34373;SDS011;20637;55.770;37.592;2024-01-06T03:26:49;7.93;;;3.15;;
34373;SDS011;20637;55.770;37.592;2024-01-06T03:29:15;8.80;;;3.92;;
34373;SDS011;20637;55.770;37.592;2024-01-06T03:31:44;9.70;;;4.32;;
34373;SDS011;20637;55.770;37.592;2024-01-06T03:34:10;9.02;;;3.35;;
34373;SDS011;20637;55.770;37.592;2024-01-06T03:36:40;7.88;;;3.35;;
34373;SDS011;20637;55.770;37.592;2024-01-06T03:39:06;6.13;;;3.25;;
34373;SDS011;20637;55.770;37.592;2024-01-06T03:41:32;10.15;;;3.83;;
34373;SDS011;20637;55.770;37.592;2024-01-06T03:43:58;4.82;;;2.05;;
34373;SDS011;20637;55.770;37.592;2024-01-06T03:46:24;7.68;;;3.85;;
34373;SDS011;20637;55.770;37.592;2024-01-06T03:48:50;8.95;;;4.03;;
34373;SDS011;20637;55.770;37.592;2024-01-06T03:51:15;9.93;;;4.22;;
34373;SDS011;20637;55.770;37.592;2024-01-06T03:53:41;6.05;;;3.30;;
34373;SDS011;20637;55.770;37.592;2024-01-06T03:56:07;8.18;;;3.78;;
34373;SDS011;20637;55.770;37.592;2024-01-06T03:58:33;7.85;;;4.13;;
34373;SDS011;20637;55.770;37.592;2024-01-06T04:00:59;6.45;;;3.15;;
34373;SDS011;20637;55.770;37.592;2024-01-06T04:03:25;10.75;;;5.32;;
34373;SDS011;20637;55.770;37.592;2024-01-06T04:05:50;10.77;;;4.43;;
34373;SDS011;20637;55.770;37.592;2024-01-06T04:08:17;10.43;;;3.67;;
34373;SDS011;20637;55.770;37.592;2024-01-06T04:10:43;9.13;;;4.13;;
34373;SDS011;20637;55.770;37.592;2024-01-06T04:13:10;10.57;;;4.30;;
34373;SDS011;20637;55.770;37.592;2024-01-06T04:15:37;6.63;;;3.47;;
34373;SDS011;20637;55.770;37.592;2024-01-06T04:18:03;8.18;;;3.58;;
34373;SDS011;20637;55.770;37.592;2024-01-06T04:20:30;7.30;;;3.40;;
34373;SDS011;20637;55.770;37.592;2024-01-06T04:22:58;10.70;;;3.97;;
34373;SDS011;20637;55.770;37.592;2024-01-06T04:25:24;8.68;;;4.03;;
34373;SDS011;20637;55.770;37.592;2024-01-06T04:27:50;12.18;;;3.72;;
34373;SDS011;20637;55.770;37.592;2024-01-06T04:30:15;9.10;;;3.40;;
34373;SDS011;20637;55.770;37.592;2024-01-06T04:32:42;6.50;;;2.40;;
34373;SDS011;20637;55.770;37.592;2024-01-06T04:35:08;9.73;;;4.15;;
34373;SDS011;20637;55.770;37.592;2024-01-06T04:37:34;10.27;;;4.15;;
34373;SDS011;20637;55.770;37.592;2024-01-06T04:40:00;8.48;;;4.13;;
34373;SDS011;20637;55.770;37.592;2024-01-06T04:42:26;9.27;;;4.22;;
34373;SDS011;20637;55.770;37.592;2024-01-06T04:44:52;10.10;;;3.97;;
34373;SDS011;20637;55.770;37.592;2024-01-06T04:47:17;8.60;;;4.55;;
34373;SDS011;20637;55.770;37.592;2024-01-06T04:49:43;12.80;;;4.68;;
34373;SDS011;20637;55.770;37.592;2024-01-06T04:52:10;9.98;;;4.35;;
34373;SDS011;20637;55.770;37.592;2024-01-06T04:54:35;10.23;;;4.72;;
34373;SDS011;20637;55.770;37.592;2024-01-06T04:57:01;9.43;;;4.10;;
34373;SDS011;20637;55.770;37.592;2024-01-06T04:59:27;10.73;;;5.07;;
34373;SDS011;20637;55.770;37.592;2024-01-06T05:01:53;7.25;;;3.65;;
34373;SDS011;20637;55.770;37.592;2024-01-06T05:04:19;9.65;;;3.55;;
34373;SDS011;20637;55.770;37.592;2024-01-06T05:06:44;14.98;;;5.03;;
34373;SDS011;20637;55.770;37.592;2024-01-06T05:09:10;10.23;;;4.97;;
34373;SDS011;20637;55.770;37.592;2024-01-06T05:11:36;9.68;;;4.10;;
34373;SDS011;20637;55.770;37.592;2024-01-06T05:14:02;12.07;;;5.40;;
34373;SDS011;20637;55.770;37.592;2024-01-06T05:16:28;11.35;;;4.38;;
34373;SDS011;20637;55.770;37.592;2024-01-06T05:18:54;9.68;;;4.13;;
34373;SDS011;20637;55.770;37.592;2024-01-06T05:21:19;15.65;;;6.10;;
34373;SDS011;20637;55.770;37.592;2024-01-06T05:23:45;12.90;;;5.28;;
34373;SDS011;20637;55.770;37.592;2024-01-06T05:26:11;6.13;;;3.80;;
34373;SDS011;20637;55.770;37.592;2024-01-06T05:28:39;8.98;;;4.40;;
34373;SDS011;20637;55.770;37.592;2024-01-06T05:31:05;10.18;;;4.38;;
34373;SDS011;20637;55.770;37.592;2024-01-06T05:33:31;11.05;;;4.70;;
34373;SDS011;20637;55.770;37.592;2024-01-06T05:35:57;11.45;;;4.45;;
34373;SDS011;20637;55.770;37.592;2024-01-06T05:38:23;11.45;;;5.68;;
34373;SDS011;20637;55.770;37.592;2024-01-06T05:40:48;12.82;;;4.50;;
34373;SDS011;20637;55.770;37.592;2024-01-06T05:43:14;9.65;;;3.88;;
34373;SDS011;20637;55.770;37.592;2024-01-06T05:45:40;13.55;;;5.78;;
34373;SDS011;20637;55.770;37.592;2024-01-06T05:48:09;15.55;;;6.63;;
34373;SDS011;20637;55.770;37.592;2024-01-06T05:50:36;12.40;;;5.28;;
34373;SDS011;20637;55.770;37.592;2024-01-06T05:53:05;11.45;;;5.32;;
34373;SDS011;20637;55.770;37.592;2024-01-06T05:55:31;11.10;;;5.00;;
34373;SDS011;20637;55.770;37.592;2024-01-06T05:57:57;8.88;;;4.30;;
34373;SDS011;20637;55.770;37.592;2024-01-06T06:00:22;13.23;;;5.25;;
34373;SDS011;20637;55.770;37.592;2024-01-06T06:02:48;9.20;;;3.80;;
34373;SDS011;20637;55.770;37.592;2024-01-06T06:05:14;10.88;;;4.75;;
34373;SDS011;20637;55.770;37.592;2024-01-06T06:07:40;9.75;;;5.00;;
34373;SDS011;20637;55.770;37.592;2024-01-06T06:10:06;10.18;;;4.72;;
34373;SDS011;20637;55.770;37.592;2024-01-06T06:12:33;8.73;;;3.83;;
34373;SDS011;20637;55.770;37.592;2024-01-06T06:14:59;13.07;;;5.72;;
34373;SDS011;20637;55.770;37.592;2024-01-06T06:17:24;15.00;;;4.85;;
34373;SDS011;20637;55.770;37.592;2024-01-06T06:19:51;13.15;;;6.43;;
34373;SDS011;20637;55.770;37.592;2024-01-06T06:22:16;11.75;;;4.38;;
34373;SDS011;20637;55.770;37.592;2024-01-06T06:24:42;12.43;;;4.70;;
34373;SDS011;20637;55.770;37.592;2024-01-06T06:27:08;12.50;;;4.80;;
34373;SDS011;20637;55.770;37.592;2024-01-06T06:29:33;6.50;;;2.90;;
34373;SDS011;20637;55.770;37.592;2024-01-06T06:31:59;12.93;;;5.90;;
34373;SDS011;20637;55.770;37.592;2024-01-06T06:34:25;15.82;;;5.78;;
34373;SDS011;20637;55.770;37.592;2024-01-06T06:36:51;17.85;;;5.55;;
34373;SDS011;20637;55.770;37.592;2024-01-06T06:39:16;13.73;;;5.30;;
34373;SDS011;20637;55.770;37.592;2024-01-06T06:41:43;10.07;;;3.38;;
34373;SDS011;20637;55.770;37.592;2024-01-06T06:44:09;10.30;;;4.75;;
34373;SDS011;20637;55.770;37.592;2024-01-06T06:46:36;12.75;;;5.35;;
34373;SDS011;20637;55.770;37.592;2024-01-06T06:49:01;11.77;;;4.25;;
34373;SDS011;20637;55.770;37.592;2024-01-06T06:51:27;16.27;;;5.70;;
34373;SDS011;20637;55.770;37.592;2024-01-06T06:53:55;8.48;;;3.47;;
34373;SDS011;20637;55.770;37.592;2024-01-06T06:56:22;10.40;;;5.00;;
34373;SDS011;20637;55.770;37.592;2024-01-06T06:58:48;7.40;;;3.00;;
34373;SDS011;20637;55.770;37.592;2024-01-06T07:01:14;12.25;;;4.80;;
34373;SDS011;20637;55.770;37.592;2024-01-06T07:03:41;7.53;;;3.75;;
34373;SDS011;20637;55.770;37.592;2024-01-06T07:06:07;10.05;;;4.82;;
34373;SDS011;20637;55.770;37.592;2024-01-06T07:08:32;7.28;;;3.63;;
34373;SDS011;20637;55.770;37.592;2024-01-06T07:10:58;7.03;;;2.97;;
34373;SDS011;20637;55.770;37.592;2024-01-06T07:13:23;13.10;;;5.25;;
34373;SDS011;20637;55.770;37.592;2024-01-06T07:15:49;10.02;;;4.25;;
34373;SDS011;20637;55.770;37.592;2024-01-06T07:18:15;12.65;;;5.45;;
34373;SDS011;20637;55.770;37.592;2024-01-06T07:20:41;18.42;;;5.90;;
34373;SDS011;20637;55.770;37.592;2024-01-06T07:23:06;8.85;;;3.60;;
34373;SDS011;20637;55.770;37.592;2024-01-06T07:25:32;13.02;;;5.88;;
34373;SDS011;20637;55.770;37.592;2024-01-06T07:27:58;15.20;;;5.97;;
34373;SDS011;20637;55.770;37.592;2024-01-06T07:30:23;8.50;;;4.03;;
34373;SDS011;20637;55.770;37.592;2024-01-06T07:32:49;12.13;;;5.15;;
34373;SDS011;20637;55.770;37.592;2024-01-06T07:35:17;14.90;;;5.82;;
34373;SDS011;20637;55.770;37.592;2024-01-06T07:37:43;15.70;;;7.07;;
34373;SDS011;20637;55.770;37.592;2024-01-06T07:40:09;11.90;;;6.22;;
34373;SDS011;20637;55.770;37.592;2024-01-06T07:42:35;16.45;;;6.82;;
34373;SDS011;20637;55.770;37.592;2024-01-06T07:45:00;18.13;;;7.20;;
34373;SDS011;20637;55.770;37.592;2024-01-06T07:47:30;16.27;;;7.38;;
34373;SDS011;20637;55.770;37.592;2024-01-06T07:49:55;14.38;;;5.68;;
34373;SDS011;20637;55.770;37.592;2024-01-06T07:52:22;16.20;;;6.18;;
34373;SDS011;20637;55.770;37.592;2024-01-06T07:54:48;17.23;;;6.45;;
34373;SDS011;20637;55.770;37.592;2024-01-06T07:57:14;13.30;;;6.13;;
34373;SDS011;20637;55.770;37.592;2024-01-06T07:59:40;13.75;;;5.97;;
34373;SDS011;20637;55.770;37.592;2024-01-06T08:02:06;13.65;;;6.47;;
34373;SDS011;20637;55.770;37.592;2024-01-06T08:04:32;13.25;;;5.60;;
34373;SDS011;20637;55.770;37.592;2024-01-06T08:06:58;15.85;;;6.93;;
34373;SDS011;20637;55.770;37.592;2024-01-06T08:09:23;15.68;;;6.82;;
34373;SDS011;20637;55.770;37.592;2024-01-06T08:11:49;14.65;;;6.38;;
34373;SDS011;20637;55.770;37.592;2024-01-06T08:14:15;15.00;;;7.57;;
34373;SDS011;20637;55.770;37.592;2024-01-06T08:16:43;18.08;;;6.53;;
34373;SDS011;20637;55.770;37.592;2024-01-06T08:19:09;15.27;;;6.68;;
34373;SDS011;20637;55.770;37.592;2024-01-06T08:21:35;15.82;;;6.28;;
34373;SDS011;20637;55.770;37.592;2024-01-06T08:24:00;12.00;;;5.90;;
34373;SDS011;20637;55.770;37.592;2024-01-06T08:26:33;15.75;;;6.95;;
34373;SDS011;20637;55.770;37.592;2024-01-06T08:28:59;17.58;;;7.85;;
34373;SDS011;20637;55.770;37.592;2024-01-06T08:31:24;16.20;;;6.78;;
34373;SDS011;20637;55.770;37.592;2024-01-06T08:33:50;14.07;;;7.00;;
34373;SDS011;20637;55.770;37.592;2024-01-06T08:36:15;14.13;;;6.43;;
34373;SDS011;20637;55.770;37.592;2024-01-06T08:38:41;16.48;;;6.57;;
34373;SDS011;20637;55.770;37.592;2024-01-06T08:41:07;13.45;;;6.18;;
34373;SDS011;20637;55.770;37.592;2024-01-06T08:43:33;14.75;;;6.38;;
34373;SDS011;20637;55.770;37.592;2024-01-06T08:45:58;17.92;;;6.45;;
34373;SDS011;20637;55.770;37.592;2024-01-06T08:48:24;16.95;;;6.68;;
34373;SDS011;20637;55.770;37.592;2024-01-06T08:50:50;15.18;;;7.18;;
34373;SDS011;20637;55.770;37.592;2024-01-06T08:53:16;16.50;;;7.50;;
34373;SDS011;20637;55.770;37.592;2024-01-06T08:55:42;19.30;;;7.60;;
34373;SDS011;20637;55.770;37.592;2024-01-06T08:58:07;16.75;;;7.43;;
34373;SDS011;20637;55.770;37.592;2024-01-06T09:00:33;19.25;;;8.20;;
34373;SDS011;20637;55.770;37.592;2024-01-06T09:02:58;15.45;;;7.53;;
34373;SDS011;20637;55.770;37.592;2024-01-06T09:05:25;17.23;;;7.47;;
34373;SDS011;20637;55.770;37.592;2024-01-06T09:07:51;18.65;;;8.23;;
34373;SDS011;20637;55.770;37.592;2024-01-06T09:10:17;18.95;;;8.10;;
34373;SDS011;20637;55.770;37.592;2024-01-06T09:12:42;18.38;;;7.43;;
34373;SDS011;20637;55.770;37.592;2024-01-06T09:15:08;16.42;;;7.63;;
34373;SDS011;20637;55.770;37.592;2024-01-06T09:17:34;20.40;;;8.13;;
34373;SDS011;20637;55.770;37.592;2024-01-06T09:20:00;15.02;;;7.75;;
34373;SDS011;20637;55.770;37.592;2024-01-06T09:22:29;25.15;;;9.13;;
34373;SDS011;20637;55.770;37.592;2024-01-06T09:24:54;19.45;;;8.75;;
34373;SDS011;20637;55.770;37.592;2024-01-06T09:27:20;17.27;;;8.13;;
34373;SDS011;20637;55.770;37.592;2024-01-06T09:29:46;20.63;;;9.18;;
34373;SDS011;20637;55.770;37.592;2024-01-06T09:32:12;16.13;;;8.40;;
34373;SDS011;20637;55.770;37.592;2024-01-06T09:34:38;18.08;;;8.40;;
34373;SDS011;20637;55.770;37.592;2024-01-06T09:37:04;19.20;;;9.15;;
34373;SDS011;20637;55.770;37.592;2024-01-06T09:39:30;22.05;;;8.48;;
34373;SDS011;20637;55.770;37.592;2024-01-06T09:41:57;17.98;;;7.93;;
34373;SDS011;20637;55.770;37.592;2024-01-06T09:44:23;17.77;;;8.45;;
34373;SDS011;20637;55.770;37.592;2024-01-06T09:46:49;12.63;;;6.43;;
34373;SDS011;20637;55.770;37.592;2024-01-06T09:49:19;20.17;;;9.05;;
34373;SDS011;20637;55.770;37.592;2024-01-06T09:51:49;18.63;;;7.88;;
34373;SDS011;20637;55.770;37.592;2024-01-06T09:54:16;18.92;;;9.30;;
34373;SDS011;20637;55.770;37.592;2024-01-06T09:56:49;22.80;;;9.38;;
34373;SDS011;20637;55.770;37.592;2024-01-06T09:59:15;19.67;;;8.52;;
34373;SDS011;20637;55.770;37.592;2024-01-06T10:01:41;16.00;;;8.02;;
34373;SDS011;20637;55.770;37.592;2024-01-06T10:04:07;18.05;;;8.75;;
34373;SDS011;20637;55.770;37.592;2024-01-06T10:06:33;19.08;;;9.02;;
34373;SDS011;20637;55.770;37.592;2024-01-06T10:08:58;16.05;;;7.30;;
34373;SDS011;20637;55.770;37.592;2024-01-06T10:11:25;21.58;;;8.25;;
34373;SDS011;20637;55.770;37.592;2024-01-06T10:13:52;18.48;;;7.70;;
34373;SDS011;20637;55.770;37.592;2024-01-06T10:16:19;16.63;;;8.02;;
34373;SDS011;20637;55.770;37.592;2024-01-06T10:18:45;21.52;;;8.65;;
34373;SDS011;20637;55.770;37.592;2024-01-06T10:21:12;16.73;;;8.30;;
34373;SDS011;20637;55.770;37.592;2024-01-06T10:23:39;17.00;;;8.45;;
34373;SDS011;20637;55.770;37.592;2024-01-06T10:26:04;16.35;;;7.53;;
34373;SDS011;20637;55.770;37.592;2024-01-06T10:28:30;18.85;;;7.90;;
34373;SDS011;20637;55.770;37.592;2024-01-06T10:30:56;13.48;;;6.38;;
34373;SDS011;20637;55.770;37.592;2024-01-06T10:33:23;18.58;;;8.43;;
34373;SDS011;20637;55.770;37.592;2024-01-06T10:35:52;24.23;;;8.95;;
34373;SDS011;20637;55.770;37.592;2024-01-06T10:38:19;25.42;;;9.52;;
34373;SDS011;20637;55.770;37.592;2024-01-06T10:41:01;17.80;;;8.55;;
34373;SDS011;20637;55.770;37.592;2024-01-06T10:43:35;17.07;;;8.33;;
34373;SDS011;20637;55.770;37.592;2024-01-06T10:46:03;23.38;;;10.00;;
34373;SDS011;20637;55.770;37.592;2024-01-06T10:48:34;21.30;;;9.48;;
34373;SDS011;20637;55.770;37.592;2024-01-06T10:51:01;22.52;;;9.30;;
34373;SDS011;20637;55.770;37.592;2024-01-06T10:53:33;18.95;;;9.10;;
34373;SDS011;20637;55.770;37.592;2024-01-06T10:56:03;22.88;;;9.38;;
34373;SDS011;20637;55.770;37.592;2024-01-06T10:58:30;17.45;;;7.72;;
34373;SDS011;20637;55.770;37.592;2024-01-06T11:00:58;21.80;;;9.13;;
34373;SDS011;20637;55.770;37.592;2024-01-06T11:03:25;23.02;;;9.02;;
34373;SDS011;20637;55.770;37.592;2024-01-06T11:05:54;18.92;;;7.45;;
34373;SDS011;20637;55.770;37.592;2024-01-06T11:08:19;17.08;;;9.10;;
34373;SDS011;20637;55.770;37.592;2024-01-06T11:10:47;17.58;;;8.57;;
34373;SDS011;20637;55.770;37.592;2024-01-06T11:13:13;20.50;;;9.20;;
34373;SDS011;20637;55.770;37.592;2024-01-06T11:15:52;22.45;;;9.23;;
34373;SDS011;20637;55.770;37.592;2024-01-06T11:18:32;21.08;;;9.73;;
34373;SDS011;20637;55.770;37.592;2024-01-06T11:26:32;18.75;;;10.15;;
34373;SDS011;20637;55.770;37.592;2024-01-06T11:28:58;19.48;;;9.18;;
34373;SDS011;20637;55.770;37.592;2024-01-06T11:31:33;23.88;;;9.30;;
34373;SDS011;20637;55.770;37.592;2024-01-06T11:37:02;16.75;;;9.00;;
34373;SDS011;20637;55.770;37.592;2024-01-06T11:39:33;20.85;;;9.13;;
34373;SDS011;20637;55.770;37.592;2024-01-06T11:42:00;19.00;;;9.48;;
34373;SDS011;20637;55.770;37.592;2024-01-06T11:44:28;17.73;;;8.48;;
34373;SDS011;20637;55.770;37.592;2024-01-06T11:46:57;17.73;;;8.75;;
34373;SDS011;20637;55.770;37.592;2024-01-06T11:49:26;19.42;;;9.77;;
34373;SDS011;20637;55.770;37.592;2024-01-06T11:51:56;19.90;;;9.20;;
34373;SDS011;20637;55.770;37.592;2024-01-06T11:54:22;19.63;;;9.75;;
34373;SDS011;20637;55.770;37.592;2024-01-06T11:56:48;24.40;;;9.68;;
34373;SDS011;20637;55.770;37.592;2024-01-06T11:59:14;19.63;;;9.68;;
34373;SDS011;20637;55.770;37.592;2024-01-06T12:01:40;21.08;;;9.05;;
34373;SDS011;20637;55.770;37.592;2024-01-06T12:04:06;19.92;;;9.60;;
34373;SDS011;20637;55.770;37.592;2024-01-06T12:06:34;22.48;;;10.43;;
34373;SDS011;20637;55.770;37.592;2024-01-06T12:09:06;22.17;;;9.90;;
34373;SDS011;20637;55.770;37.592;2024-01-06T12:11:33;22.10;;;9.23;;
34373;SDS011;20637;55.770;37.592;2024-01-06T12:13:59;21.48;;;9.88;;
34373;SDS011;20637;55.770;37.592;2024-01-06T12:16:25;27.40;;;10.75;;
34373;SDS011;20637;55.770;37.592;2024-01-06T12:18:54;23.25;;;10.57;;
34373;SDS011;20637;55.770;37.592;2024-01-06T12:21:23;20.60;;;10.02;;
34373;SDS011;20637;55.770;37.592;2024-01-06T12:23:49;20.23;;;9.25;;
34373;SDS011;20637;55.770;37.592;2024-01-06T12:26:18;23.48;;;10.88;;
34373;SDS011;20637;55.770;37.592;2024-01-06T12:28:47;18.45;;;10.25;;
34373;SDS011;20637;55.770;37.592;2024-01-06T12:31:14;22.40;;;10.67;;
34373;SDS011;20637;55.770;37.592;2024-01-06T12:33:40;24.65;;;10.15;;
34373;SDS011;20637;55.770;37.592;2024-01-06T12:36:07;21.05;;;10.65;;
34373;SDS011;20637;55.770;37.592;2024-01-06T12:38:42;25.30;;;11.50;;
34373;SDS011;20637;55.770;37.592;2024-01-06T12:41:08;24.40;;;11.15;;
34373;SDS011;20637;55.770;37.592;2024-01-06T12:43:33;19.23;;;11.00;;
34373;SDS011;20637;55.770;37.592;2024-01-06T12:45:59;23.35;;;11.18;;
34373;SDS011;20637;55.770;37.592;2024-01-06T12:48:25;23.83;;;11.05;;
34373;SDS011;20637;55.770;37.592;2024-01-06T12:50:50;27.20;;;11.25;;
34373;SDS011;20637;55.770;37.592;2024-01-06T12:53:16;24.00;;;11.27;;
34373;SDS011;20637;55.770;37.592;2024-01-06T12:55:43;26.75;;;12.20;;
34373;SDS011;20637;55.770;37.592;2024-01-06T12:58:10;27.73;;;11.85;;
34373;SDS011;20637;55.770;37.592;2024-01-06T13:00:36;23.25;;;11.85;;
34373;SDS011;20637;55.770;37.592;2024-01-06T13:03:02;21.65;;;11.82;;
34373;SDS011;20637;55.770;37.592;2024-01-06T13:05:29;29.25;;;12.10;;
34373;SDS011;20637;55.770;37.592;2024-01-06T13:07:55;25.88;;;12.20;;
34373;SDS011;20637;55.770;37.592;2024-01-06T13:10:22;28.08;;;12.40;;
34373;SDS011;20637;55.770;37.592;2024-01-06T13:12:48;28.27;;;12.82;;
34373;SDS011;20637;55.770;37.592;2024-01-06T13:15:14;21.90;;;10.82;;
34373;SDS011;20637;55.770;37.592;2024-01-06T13:17:39;24.23;;;10.85;;
34373;SDS011;20637;55.770;37.592;2024-01-06T13:20:05;24.05;;;10.32;;
34373;SDS011;20637;55.770;37.592;2024-01-06T13:22:33;20.40;;;9.20;;
34373;SDS011;20637;55.770;37.592;2024-01-06T13:24:59;25.60;;;12.55;;
34373;SDS011;20637;55.770;37.592;2024-01-06T13:27:25;26.38;;;11.95;;
34373;SDS011;20637;55.770;37.592;2024-01-06T13:29:54;26.92;;;11.45;;
34373;SDS011;20637;55.770;37.592;2024-01-06T13:32:19;31.45;;;12.52;;
34373;SDS011;20637;55.770;37.592;2024-01-06T13:34:47;22.17;;;10.60;;
34373;SDS011;20637;55.770;37.592;2024-01-06T13:37:13;23.95;;;11.05;;
34373;SDS011;20637;55.770;37.592;2024-01-06T13:39:38;22.85;;;10.15;;
34373;SDS011;20637;55.770;37.592;2024-01-06T13:42:04;23.60;;;10.45;;
34373;SDS011;20637;55.770;37.592;2024-01-06T13:44:30;24.58;;;10.38;;
34373;SDS011;20637;55.770;37.592;2024-01-06T13:46:56;22.17;;;9.02;;
34373;SDS011;20637;55.770;37.592;2024-01-06T13:49:22;23.88;;;11.35;;
34373;SDS011;20637;55.770;37.592;2024-01-06T13:51:49;24.20;;;11.15;;
34373;SDS011;20637;55.770;37.592;2024-01-06T13:54:15;23.38;;;10.85;;
34373;SDS011;20637;55.770;37.592;2024-01-06T13:56:40;29.08;;;13.13;;
34373;SDS011;20637;55.770;37.592;2024-01-06T13:59:06;23.52;;;10.95;;
34373;SDS011;20637;55.770;37.592;2024-01-06T14:01:32;20.38;;;11.13;;
34373;SDS011;20637;55.770;37.592;2024-01-06T14:03:58;24.17;;;11.45;;
34373;SDS011;20637;55.770;37.592;2024-01-06T14:06:24;28.13;;;12.55;;
34373;SDS011;20637;55.770;37.592;2024-01-06T14:08:51;24.67;;;10.98;;
34373;SDS011;20637;55.770;37.592;2024-01-06T14:11:18;23.85;;;10.93;;
34373;SDS011;20637;55.770;37.592;2024-01-06T14:13:44;23.00;;;11.98;;
34373;SDS011;20637;55.770;37.592;2024-01-06T14:16:14;20.23;;;10.53;;
34373;SDS011;20637;55.770;37.592;2024-01-06T14:18:39;20.73;;;10.23;;
34373;SDS011;20637;55.770;37.592;2024-01-06T14:21:05;22.10;;;10.93;;
34373;SDS011;20637;55.770;37.592;2024-01-06T14:23:32;20.92;;;11.20;;
34373;SDS011;20637;55.770;37.592;2024-01-06T14:25:58;33.85;;;12.10;;
34373;SDS011;20637;55.770;37.592;2024-01-06T14:28:24;23.00;;;10.82;;